Milford, Utah Weather observations

Data are for observation ending at time listed.
 Day   Time    Ave.   Ave.  Ave.  Vector   Max.   Stn.    Total    Solar   Ave.  
  of    of     Air    Rel.  Wind   Wind    Wind   Baro.  Precip.   Rad.    Soil  
Year   Day     Temp.  Hum.  Speed  Dir.    Gust   Pres.                    Temp. 
2016   (MST)    F      %     mph   deg.    mph     mb.     in.     W/m2     F   
------------------------------------------------------------------------------
 182    1:10   64.1    65    2.4   175      6.6   848.4    0.00       0    74.1
 182    1:20   65.2    62    2.1   154      6.4   848.4    0.00       0    74.0
 182    1:30   64.9    63    1.0   139      2.7   848.5    0.00       0    74.0
 182    1:40   64.8    63    0.6   154      2.3   848.5    0.00       0    74.0
 182    1:50   64.6    65    0.7   161      3.4   848.4    0.00       0    74.0
 182    2:00   64.2    66    1.5   165      3.3   848.4    0.00       0    73.9
 182    2:10   63.8    68    0.1   230      1.0   848.4    0.00       0    73.9
 182    2:20   63.6    67    0.7   178      3.9   848.2    0.00       0    73.8
 182    2:30   63.2    68    0.9   206      3.2   848.2    0.00       0    73.8
 182    2:40   62.9    68    1.3   186      3.7   848.2    0.00       0    73.8
 182    2:50   62.3    68    1.2   203      2.8   848.1    0.00       0    73.8
 182    3:00   62.0    68    0.3   241      2.3   848.1    0.00       0    73.7
 182    3:10   61.6    68    0.6   181      2.9   848.0    0.00       0    73.7
 182    3:20   61.6    67    2.4   152      5.0   848.0    0.00       0    73.7
 182    3:30   60.7    70    1.3   156      3.5   848.1    0.00       0    73.6
 182    3:40   60.0    71    1.9   160      4.2   848.0    0.00       0    73.6
 182    3:50   60.1    72    1.3   197      3.4   848.1    0.00       0    73.6
 182    4:00   60.5    71    0.8   133      4.3   848.2    0.00       0    73.5
 182    4:10   60.7    71    0.0     0      0.0   848.2    0.00       0    73.5
 182    4:20   61.4    71    0.8   164      3.4   848.2    0.00       0    73.5
 182    4:30   61.7    71    0.7   188      2.3   848.2    0.00       0    73.4
 182    4:40   61.7    70    0.4   231      2.0   848.3    0.00       0    73.4
 182    4:50   61.8    70    0.2   193      2.3   848.4    0.00       0    73.4
 182    5:00   61.6    70    0.1   183      1.8   848.6    0.00       0    73.3
 182    5:10   61.6    71    0.8   196      2.7   848.7    0.00       0    73.3
 182    5:20   61.5    71    0.6   183      2.5   848.6    0.00       3    73.3
 182    5:30   61.5    71    0.1   190      0.8   848.6    0.00      10    73.2
 182    5:40   61.6    71    0.9   144      3.1   848.7    0.00      19    73.2
 182    5:50   61.2    73    1.6   141      2.9   848.8    0.00      24    73.2
 182    6:00   60.9    74    1.6   163      2.7   848.8    0.00      29    73.2
 182    6:10   60.8    74    1.4   196      2.9   848.8    0.00      34    73.1
 182    6:20   61.4    74    1.4   190      4.2   848.8    0.00      43    73.1
 182    6:30   61.9    73    1.4   196      3.8   848.8    0.00      60    73.0
 182    6:40   62.7    72    0.5   223      2.4   848.8    0.00      62    73.0
 182    6:50   62.7    73    1.1   204      2.2   848.9    0.00      74    73.0
 182    7:00   62.6    73    0.9   188      2.9   848.9    0.00      65    73.0
 182    7:10   63.8    69    0.3   155      1.5   848.9    0.00     142    73.0
 182    7:20   65.2    65    1.4   158      3.1   849.0    0.00     113    72.9
 182    7:30   66.9    62    0.9   156      2.8   849.2    0.00     285    72.8
 182    7:40   69.8    56    1.9   149      3.6   849.4    0.00     400    72.7
 182    7:50   72.0    51    1.9   150      3.4   849.7    0.00     426    72.7
 182    8:00   72.4    50    3.4   159      5.9   849.9    0.00     443    72.6
 182    8:10   73.2    50    3.2   161      5.7   850.2    0.00     458    72.6
 182    8:20   74.7    48    3.2   168      6.5   850.4    0.00     483    72.6
 182    8:30   75.5    46    3.7   169      6.9   850.6    0.00     404    72.6
 182    8:40   73.3    52    4.0   168      6.5   850.7    0.00     213    72.6
 182    8:50   73.3    54    2.1   174      5.5   850.7    0.00     243    72.6
 182    9:00   74.4    54    1.2   177      3.2   850.7    0.00     202    72.6
 182    9:10   77.4    43    3.3   183      9.0   850.7    0.00     500    72.6
 182    9:20   78.8    36    4.4   184     10.5   850.8    0.00     282    72.6
 182    9:30   78.3    35    4.3   184     10.6   850.9    0.00     261    72.6
 182    9:40   78.1    38    4.3   186      9.5   851.0    0.00     251    72.7
 182    9:50   78.2    37    4.7   185     10.4   851.0    0.00     289    72.7
 182   10:00   79.0    36    4.9   179     13.5   851.0    0.00     350    72.8
 182   10:10   80.5    34    6.3   175     13.5   851.1    0.00     609    72.7
 182   10:20   80.6    33    8.0   171     14.0   851.2    0.00     496    72.8
 182   10:30   81.0    32    6.6   176     11.7   851.3    0.00     512    72.8
 182   10:40   81.2    32    6.7   174     13.1   851.4    0.00     664    72.8
 182   10:50   82.9    30    6.5   170     12.4   851.5    0.00     851    72.7
 182   11:00   83.6    30    6.9   168     14.3   851.6    0.00     868    72.7
 182   11:10   83.0    30    7.0   170     12.6   851.6    0.00     765    72.9
 182   11:20   83.7    29    7.3   161     14.5   851.5    0.00     919    72.9
 182   11:30   85.4    26    7.7   156     12.9   851.4    0.00     995    72.9
 182   11:40   85.7    27    7.3   153     14.2   851.2    0.00     859    72.9
 182   11:50   86.0    26    7.2   155     12.1   851.0    0.00     871    72.9
 182   12:00   86.5    26    4.4   180      9.9   850.9    0.00     893    73.0
 182   12:10   87.2    24    4.7   163      9.6   850.9    0.00     701    73.0
 182   12:20   87.4    24    6.6   145     11.6   850.8    0.00    1040    73.0
 182   12:30   88.3    23    5.8   152     11.0   850.8    0.00     825    73.1
 182   12:40   85.5    26    3.6   179      8.8   851.0    0.00     197    73.2
 182   12:50   83.4    30    2.7   208     10.4   851.0    0.00     461    73.3
 182   13:00   80.1    42    1.8    36      5.2   851.0    0.00     237    73.3
 182   13:10   76.2    49    1.3    16      4.8   850.8    0.00     135    73.5
 182   13:20   74.8    53    1.1    63      4.7   850.6    0.00     106    73.5
 182   13:30   75.2    49    1.4    57      3.3   850.4    0.00     108    73.6
 182   13:40   76.0    48    0.9   120      3.9   850.2    0.00     129    73.7
 182   13:50   75.9    52    0.5    81      2.6   850.1    0.00     108    73.8
 182   14:00   73.7    65    1.5    10      4.0   850.0    0.01     102    73.9
 182   14:10   72.3    67    0.3   355      2.6   849.9    0.00      79    74.0
 182   14:20   71.6    65    0.1   328      1.8   849.9    0.01      62    74.1
 182   14:30   71.2    57    0.8   254      3.9   849.5    0.00      95    74.1
 182   14:40   72.6    48    1.6   224      3.8   848.9    0.00     129    74.1
 182   14:50   74.8    48    5.1   154     10.0   848.6    0.01     184    74.1
 182   15:00   76.9    43    3.3   138      8.9   848.3    0.00     241    74.1
 182   15:10   78.9    35    2.9   138      5.8   848.6    0.00     341    74.2
 182   15:20   80.5    31    2.5   167      7.1   849.3    0.00     432    74.2
 182   15:30   81.1    37    1.2   246      4.3   849.7    0.00     378    74.2
 182   15:40   80.8    39    2.4   194      7.2   850.0    0.00     432    74.3
 182   15:50   78.5    43    3.4   199      9.1   850.2    0.00     319    74.3
 182   16:00   77.2    46    4.2   195     10.4   850.1    0.00     273    74.4
 182   16:10   76.3    46    4.7   186     12.0   849.9    0.00     212    74.4
 182   16:20   75.6    44    5.7   187     13.0   849.5    0.00     187    74.5
 182   16:30   76.0    41    7.7   178     16.1   849.0    0.00     157    74.5
 182   16:40   76.6    37    7.8   179     15.9   848.7    0.00     136    74.5
 182   16:50   76.2    38    6.1   174     11.8   848.6    0.00     147    74.5
 182   17:00   76.6    38    5.3   176     12.3   848.4    0.00     163    74.6
 182   17:10   76.5    40    4.0   174      9.3   848.2    0.00     133    74.6
 182   17:20   76.7    39    3.4   188      8.5   848.3    0.00     111    74.6
 182   17:30   76.3    38    4.0   188     10.4   848.4    0.00     125    74.6
 182   17:40   75.8    42    4.7   187     12.4   848.5    0.00     146    74.6
 182   17:50   75.1    44    3.8   200      9.7   848.8    0.00     140    74.7
 182   18:00   74.8    44    3.0   197      7.4   849.0    0.00     113    74.7
 182   18:10   74.6    46    3.1   186      7.5   849.2    0.00      85    74.7
 182   18:20   73.7    49    3.0   185      6.1   849.3    0.00      62    74.7
 182   18:30   73.1    51    2.4   184      7.1   849.5    0.00      51    74.7
 182   18:40   72.9    50    1.0   228      2.9   849.6    0.00      49    74.7
 182   18:50   72.6    50    1.6   193      4.8   849.6    0.00      43    74.6
 182   19:00   72.2    50    2.3   175      5.5   849.4    0.00      33    74.6
 182   19:10   71.9    51    1.9   178      4.2   849.3    0.00      26    74.7
 182   19:20   71.5    54    0.9   185      3.7   849.3    0.00      19    74.7
 182   19:30   71.2    55    0.2   276      1.2   849.4    0.00       8    74.7
 182   19:40   71.0    56    0.9   224      2.6   849.5    0.00       3    74.7
 182   19:50   70.9    57    0.1   243      1.5   849.7    0.00       3    74.7
 182   20:00   70.4    58    0.5   183      2.9   849.6    0.00       3    74.6
 182   20:10   70.2    58    2.6   186      4.7   849.6    0.00       2    74.6
 182   20:20   70.9    51    2.2   190      5.3   849.6    0.00       0    74.6
 182   20:30   70.8    51    2.1   174      6.4   849.7    0.00       0    74.6
 182   20:40   69.8    56    3.0   170      6.8   849.8    0.00       0    74.6
 182   20:50   68.5    61    2.8   176      6.9   849.8    0.00       0    74.5
 182   21:00   67.7    63    2.0   196      5.8   849.9    0.00       0    74.6
 182   21:10   67.6    63    2.7   178      5.7   849.9    0.00       0    74.5
 182   21:20   68.1    62    1.7   187      5.4   849.9    0.00       0    74.5
 182   21:30   68.0    62    1.3   215      3.3   849.9    0.00       0    74.5
 182   21:40   68.5    59    1.4   204      3.1   849.9    0.00       0    74.5
 182   21:50   68.9    57    0.9   205      3.1   849.9    0.00       0    74.4
 182   22:00   68.8    59    0.9   250      3.1   849.9    0.00       0    74.4
 182   22:10   68.1    61    0.9   230      2.7   850.1    0.00       0    74.4
 182   22:20   68.4    58    1.1   241      2.8   850.1    0.00       0    74.4
 182   22:30   68.4    58    1.3   244      3.8   850.1    0.00       0    74.4
 182   22:40   68.4    58    1.6   245      4.7   850.2    0.00       0    74.4
 182   22:50   68.6    56    1.3   249      3.3   850.2    0.00       0    74.3
 182   23:00   68.8    55    1.3   246      4.3   850.1    0.00       0    74.3
 182   23:10   68.5    55    1.4   235      3.9   850.1    0.00       0    74.3
 182   23:20   68.5    55    0.9   239      2.8   850.1    0.00       0    74.3
 182   23:30   68.1    56    0.8   209      4.3   850.1    0.00       0    74.2
 182   23:40   67.9    57    0.6   234      2.5   850.1    0.00       0    74.2
 182   23:50   67.7    58    1.3   197      3.8   849.9    0.00       0    74.2
 183    0:00   67.6    58    2.6   185      4.4   849.8    0.00       0    74.2
 183    0:10   67.2    59    2.4   182      5.0   849.6    0.00       0    74.2
 183    0:20   67.0    60    2.4   187      5.8   849.5    0.00       0    74.2
 183    0:30   66.9    61    2.2   163      5.5   849.4    0.00       0    74.1
 183    0:40   65.8    64    2.1   168      4.8   849.3    0.00       0    74.1
 183    0:50   65.2    66    1.0   150      4.0   849.3    0.00       0    74.1
 183    1:00   64.8    67    0.5   283      1.8   849.2    0.00       0    74.0

Return to Milford, Utah graphs page.


Western Regional Climate Center,wrcc@dri.edu